sensor_id;sensor_type;location;lat;lon;timestamp;pressure;altitude;pressure_sealevel;temperature;humidity
37710;BME280;60223;34.854;-92.408;2024-01-30T00:01:30;101176.93;;;27.20;20.08
37710;BME280;60223;34.854;-92.408;2024-01-30T00:03:55;101179.82;;;27.38;20.17
37710;BME280;60223;34.854;-92.408;2024-01-30T00:06:22;101182.78;;;27.35;20.05
37710;BME280;60223;34.854;-92.408;2024-01-30T00:08:47;101181.82;;;27.46;20.13
37710;BME280;60223;34.854;-92.408;2024-01-30T00:11:13;101180.91;;;27.30;20.10
37710;BME280;60223;34.854;-92.408;2024-01-30T00:13:38;101184.82;;;27.39;20.05
37710;BME280;60223;34.854;-92.408;2024-01-30T00:16:04;101185.33;;;27.69;20.02
37710;BME280;60223;34.854;-92.408;2024-01-30T00:18:29;101188.54;;;28.13;19.78
37710;BME280;60223;34.854;-92.408;2024-01-30T00:20:55;101188.55;;;28.49;19.72
37710;BME280;60223;34.854;-92.408;2024-01-30T00:23:21;101189.75;;;28.16;19.76
37710;BME280;60223;34.854;-92.408;2024-01-30T00:25:46;101189.21;;;28.15;19.65
37710;BME280;60223;34.854;-92.408;2024-01-30T00:28:12;101189.65;;;28.42;19.65
37710;BME280;60223;34.854;-92.408;2024-01-30T00:30:38;101185.72;;;27.64;20.05
37710;BME280;60223;34.854;-92.408;2024-01-30T00:33:03;101185.66;;;27.83;20.28
37710;BME280;60223;34.854;-92.408;2024-01-30T00:35:29;101182.02;;;27.18;20.59
37710;BME280;60223;34.854;-92.408;2024-01-30T00:37:54;101183.48;;;26.48;21.13
37710;BME280;60223;34.854;-92.408;2024-01-30T00:40:20;101181.50;;;26.37;21.43
37710;BME280;60223;34.854;-92.408;2024-01-30T00:42:46;101184.62;;;25.15;22.01
37710;BME280;60223;34.854;-92.408;2024-01-30T00:45:15;101185.64;;;25.40;22.24
37710;BME280;60223;34.854;-92.408;2024-01-30T00:47:37;101186.22;;;25.68;22.10
37710;BME280;60223;34.854;-92.408;2024-01-30T00:50:03;101185.60;;;26.71;21.32
37710;BME280;60223;34.854;-92.408;2024-01-30T00:52:28;101187.86;;;27.31;20.67
37710;BME280;60223;34.854;-92.408;2024-01-30T00:54:53;101187.07;;;27.26;20.81
37710;BME280;60223;34.854;-92.408;2024-01-30T00:57:19;101191.45;;;28.29;20.58
37710;BME280;60223;34.854;-92.408;2024-01-30T00:59:44;101192.14;;;28.00;20.49
37710;BME280;60223;34.854;-92.408;2024-01-30T01:02:10;101188.37;;;27.52;20.58
37710;BME280;60223;34.854;-92.408;2024-01-30T01:04:36;101189.69;;;27.70;20.67
37710;BME280;60223;34.854;-92.408;2024-01-30T01:07:01;101187.99;;;27.23;20.71
37710;BME280;60223;34.854;-92.408;2024-01-30T01:09:27;101185.88;;;27.93;20.59
37710;BME280;60223;34.854;-92.408;2024-01-30T01:11:52;101189.71;;;27.36;20.81
37710;BME280;60223;34.854;-92.408;2024-01-30T01:14:18;101189.52;;;27.88;20.64
37710;BME280;60223;34.854;-92.408;2024-01-30T01:16:43;101191.91;;;28.22;20.40
37710;BME280;60223;34.854;-92.408;2024-01-30T01:19:06;101191.13;;;28.12;20.30
37710;BME280;60223;34.854;-92.408;2024-01-30T01:21:35;101187.30;;;28.32;20.33
37710;BME280;60223;34.854;-92.408;2024-01-30T01:24:00;101191.40;;;27.50;20.73
37710;BME280;60223;34.854;-92.408;2024-01-30T01:26:26;101190.66;;;27.35;20.85
37710;BME280;60223;34.854;-92.408;2024-01-30T01:28:52;101188.87;;;26.07;21.81
37710;BME280;60223;34.854;-92.408;2024-01-30T01:31:17;101186.70;;;26.45;21.54
37710;BME280;60223;34.854;-92.408;2024-01-30T01:33:43;101186.71;;;25.66;22.15
37710;BME280;60223;34.854;-92.408;2024-01-30T01:36:09;101182.63;;;25.40;22.37
37710;BME280;60223;34.854;-92.408;2024-01-30T01:38:34;101183.71;;;25.03;22.66
37710;BME280;60223;34.854;-92.408;2024-01-30T01:41:00;101187.39;;;24.94;22.78
37710;BME280;60223;34.854;-92.408;2024-01-30T01:43:26;101188.70;;;24.65;23.05
37710;BME280;60223;34.854;-92.408;2024-01-30T01:45:51;101189.39;;;24.81;22.95
37710;BME280;60223;34.854;-92.408;2024-01-30T01:48:17;101191.23;;;25.46;22.84
37710;BME280;60223;34.854;-92.408;2024-01-30T01:50:43;101187.40;;;25.59;22.51
37710;BME280;60223;34.854;-92.408;2024-01-30T01:53:08;101179.94;;;26.27;21.65
37710;BME280;60223;34.854;-92.408;2024-01-30T01:55:34;101179.99;;;27.51;21.15
37710;BME280;60223;34.854;-92.408;2024-01-30T01:58:00;101183.35;;;28.13;20.61
37710;BME280;60223;34.854;-92.408;2024-01-30T02:00:26;101188.35;;;27.75;20.56
37710;BME280;60223;34.854;-92.408;2024-01-30T02:02:51;101187.42;;;27.70;20.67
37710;BME280;60223;34.854;-92.408;2024-01-30T02:05:16;101185.03;;;27.57;20.80
37710;BME280;60223;34.854;-92.408;2024-01-30T02:07:43;101182.64;;;27.87;20.79
37710;BME280;60223;34.854;-92.408;2024-01-30T02:10:08;101180.88;;;27.74;20.76
37710;BME280;60223;34.854;-92.408;2024-01-30T02:12:33;101184.37;;;28.27;20.56
37710;BME280;60223;34.854;-92.408;2024-01-30T02:15:00;101181.69;;;28.01;20.56
37710;BME280;60223;34.854;-92.408;2024-01-30T02:17:26;101184.64;;;28.40;20.45
37710;BME280;60223;34.854;-92.408;2024-01-30T02:19:49;101184.39;;;27.80;20.69
37710;BME280;60223;34.854;-92.408;2024-01-30T02:22:16;101183.49;;;27.26;21.28
37710;BME280;60223;34.854;-92.408;2024-01-30T02:24:42;101183.92;;;26.74;21.68
37710;BME280;60223;34.854;-92.408;2024-01-30T02:27:07;101181.90;;;25.41;22.53
37710;BME280;60223;34.854;-92.408;2024-01-30T02:29:30;101182.84;;;25.64;22.59
37710;BME280;60223;34.854;-92.408;2024-01-30T02:31:56;101182.52;;;25.18;22.75
37710;BME280;60223;34.854;-92.408;2024-01-30T02:34:24;101181.26;;;25.31;22.66
37710;BME280;60223;34.854;-92.408;2024-01-30T02:36:49;101180.93;;;24.98;23.12
37710;BME280;60223;34.854;-92.408;2024-01-30T02:39:13;101179.53;;;25.04;23.09
37710;BME280;60223;34.854;-92.408;2024-01-30T02:41:41;101173.30;;;24.90;23.05
37710;BME280;60223;34.854;-92.408;2024-01-30T02:44:06;101171.18;;;24.74;23.21
37710;BME280;60223;34.854;-92.408;2024-01-30T02:46:32;101171.25;;;27.10;21.48
37710;BME280;60223;34.854;-92.408;2024-01-30T02:48:57;101171.72;;;27.53;21.08
37710;BME280;60223;34.854;-92.408;2024-01-30T02:51:23;101170.41;;;26.73;21.61
37710;BME280;60223;34.854;-92.408;2024-01-30T02:53:49;101169.66;;;27.69;20.81
37710;BME280;60223;34.854;-92.408;2024-01-30T02:56:14;101167.68;;;27.72;20.85
37710;BME280;60223;34.854;-92.408;2024-01-30T02:58:41;101167.57;;;27.96;20.59
37710;BME280;60223;34.854;-92.408;2024-01-30T03:01:05;101170.54;;;27.69;20.82
37710;BME280;60223;34.854;-92.408;2024-01-30T03:03:31;101167.45;;;27.65;20.91
37710;BME280;60223;34.854;-92.408;2024-01-30T03:05:57;101170.15;;;28.09;20.62
37710;BME280;60223;34.854;-92.408;2024-01-30T03:08:22;101173.59;;;28.19;20.69
37710;BME280;60223;34.854;-92.408;2024-01-30T03:10:47;101174.12;;;28.19;20.68
37710;BME280;60223;34.854;-92.408;2024-01-30T03:13:14;101171.40;;;27.63;20.92
37710;BME280;60223;34.854;-92.408;2024-01-30T03:15:42;101163.53;;;26.36;21.88
37710;BME280;60223;34.854;-92.408;2024-01-30T03:18:06;101159.21;;;25.95;22.20
37710;BME280;60223;34.854;-92.408;2024-01-30T03:20:31;101156.35;;;25.82;22.53
37710;BME280;60223;34.854;-92.408;2024-01-30T03:22:59;101156.98;;;25.33;22.72
37710;BME280;60223;34.854;-92.408;2024-01-30T03:25:22;101160.03;;;25.21;22.83
37710;BME280;60223;34.854;-92.408;2024-01-30T03:27:47;101160.88;;;25.10;23.09
37710;BME280;60223;34.854;-92.408;2024-01-30T03:30:14;101159.30;;;24.84;23.10
37710;BME280;60223;34.854;-92.408;2024-01-30T03:32:40;101159.24;;;25.05;22.97
37710;BME280;60223;34.854;-92.408;2024-01-30T03:35:05;101160.07;;;25.44;22.80
37710;BME280;60223;34.854;-92.408;2024-01-30T03:37:30;101154.76;;;25.17;22.80
37710;BME280;60223;34.854;-92.408;2024-01-30T03:39:56;101151.95;;;26.36;21.83
37710;BME280;60223;34.854;-92.408;2024-01-30T03:42:20;101148.69;;;26.67;21.62
37710;BME280;60223;34.854;-92.408;2024-01-30T03:44:44;101150.11;;;26.94;21.25
37710;BME280;60223;34.854;-92.408;2024-01-30T03:47:12;101150.78;;;28.19;20.52
37710;BME280;60223;34.854;-92.408;2024-01-30T03:49:38;101148.07;;;28.37;20.41
37710;BME280;60223;34.854;-92.408;2024-01-30T03:52:02;101144.01;;;27.88;20.55
37710;BME280;60223;34.854;-92.408;2024-01-30T03:54:27;101141.92;;;27.69;20.93
37710;BME280;60223;34.854;-92.408;2024-01-30T03:56:55;101137.48;;;28.20;20.64
37710;BME280;60223;34.854;-92.408;2024-01-30T03:59:20;101134.20;;;28.01;20.59
37710;BME280;60223;34.854;-92.408;2024-01-30T04:01:46;101132.87;;;27.49;20.94
37710;BME280;60223;34.854;-92.408;2024-01-30T04:04:12;101129.15;;;27.21;21.13
37710;BME280;60223;34.854;-92.408;2024-01-30T04:06:38;101131.69;;;26.96;21.49
37710;BME280;60223;34.854;-92.408;2024-01-30T04:09:03;101129.15;;;26.36;22.17
37710;BME280;60223;34.854;-92.408;2024-01-30T04:11:28;101129.43;;;25.51;22.48
37710;BME280;60223;34.854;-92.408;2024-01-30T04:13:55;101132.75;;;25.46;22.69
37710;BME280;60223;34.854;-92.408;2024-01-30T04:16:24;101130.85;;;25.16;22.75
37710;BME280;60223;34.854;-92.408;2024-01-30T04:18:47;101128.64;;;25.42;22.73
37710;BME280;60223;34.854;-92.408;2024-01-30T04:21:11;101125.78;;;25.10;22.80
37710;BME280;60223;34.854;-92.408;2024-01-30T04:23:34;101125.21;;;25.29;22.83
37710;BME280;60223;34.854;-92.408;2024-01-30T04:26:02;101122.42;;;25.19;22.68
37710;BME280;60223;34.854;-92.408;2024-01-30T04:28:28;101120.82;;;24.81;23.01
37710;BME280;60223;34.854;-92.408;2024-01-30T04:30:51;101119.52;;;26.97;21.45
37710;BME280;60223;34.854;-92.408;2024-01-30T04:33:19;101116.00;;;26.99;21.10
37710;BME280;60223;34.854;-92.408;2024-01-30T04:35:44;101111.19;;;26.55;21.53
37710;BME280;60223;34.854;-92.408;2024-01-30T04:38:10;101111.72;;;28.30;20.44
37710;BME280;60223;34.854;-92.408;2024-01-30T04:40:36;101111.04;;;28.23;20.35
37710;BME280;60223;34.854;-92.408;2024-01-30T04:43:01;101104.64;;;27.68;20.55
37710;BME280;60223;34.854;-92.408;2024-01-30T04:45:26;101099.28;;;28.14;20.54
37710;BME280;60223;34.854;-92.408;2024-01-30T04:47:52;101093.48;;;27.22;21.02
37710;BME280;60223;34.854;-92.408;2024-01-30T04:50:18;101088.91;;;26.51;21.57
37710;BME280;60223;34.854;-92.408;2024-01-30T04:52:44;101089.72;;;26.08;21.89
37710;BME280;60223;34.854;-92.408;2024-01-30T04:55:10;101094.29;;;25.59;22.28
37710;BME280;60223;34.854;-92.408;2024-01-30T04:57:32;101097.89;;;25.88;22.44
37710;BME280;60223;34.854;-92.408;2024-01-30T05:00:01;101099.15;;;25.15;22.63
37710;BME280;60223;34.854;-92.408;2024-01-30T05:02:26;101101.60;;;24.87;22.83
37710;BME280;60223;34.854;-92.408;2024-01-30T05:21:51;101088.26;;;26.40;21.79
37710;BME280;60223;34.854;-92.408;2024-01-30T05:24:16;101086.36;;;26.22;21.65
37710;BME280;60223;34.854;-92.408;2024-01-30T05:26:43;101087.80;;;27.24;20.87
37710;BME280;60223;34.854;-92.408;2024-01-30T05:29:08;101084.37;;;27.84;20.23
37710;BME280;60223;34.854;-92.408;2024-01-30T05:31:31;101078.30;;;28.35;20.10
37710;BME280;60223;34.854;-92.408;2024-01-30T05:34:00;101077.60;;;28.19;20.04
37710;BME280;60223;34.854;-92.408;2024-01-30T05:36:24;101077.02;;;28.38;20.31
37710;BME280;60223;34.854;-92.408;2024-01-30T05:38:51;101072.92;;;27.71;20.55
37710;BME280;60223;34.854;-92.408;2024-01-30T05:41:16;101074.13;;;27.90;20.40
37710;BME280;60223;34.854;-92.408;2024-01-30T05:43:42;101072.97;;;27.21;20.92
37710;BME280;60223;34.854;-92.408;2024-01-30T05:46:06;101070.62;;;27.25;21.04
37710;BME280;60223;34.854;-92.408;2024-01-30T05:48:33;101067.23;;;26.13;21.89
37710;BME280;60223;34.854;-92.408;2024-01-30T05:50:58;101066.03;;;25.24;22.42
37710;BME280;60223;34.854;-92.408;2024-01-30T05:53:25;101061.87;;;25.59;22.32
37710;BME280;60223;34.854;-92.408;2024-01-30T05:55:50;101059.28;;;25.31;22.75
37710;BME280;60223;34.854;-92.408;2024-01-30T05:58:13;101054.37;;;25.73;22.39
37710;BME280;60223;34.854;-92.408;2024-01-30T06:00:39;101049.76;;;25.12;22.50
37710;BME280;60223;34.854;-92.408;2024-01-30T06:03:07;101046.15;;;25.12;22.50
37710;BME280;60223;34.854;-92.408;2024-01-30T06:05:32;101046.09;;;25.19;22.64
37710;BME280;60223;34.854;-92.408;2024-01-30T06:07:58;101041.10;;;25.42;22.41
37710;BME280;60223;34.854;-92.408;2024-01-30T06:10:24;101037.77;;;26.73;21.46
37710;BME280;60223;34.854;-92.408;2024-01-30T06:12:49;101037.49;;;26.44;21.36
37710;BME280;60223;34.854;-92.408;2024-01-30T06:15:12;101039.15;;;26.95;20.79
37710;BME280;60223;34.854;-92.408;2024-01-30T06:17:41;101035.99;;;28.43;20.03
37710;BME280;60223;34.854;-92.408;2024-01-30T06:20:06;101033.26;;;28.25;19.85
37710;BME280;60223;34.854;-92.408;2024-01-30T06:22:32;101031.65;;;28.07;20.03
37710;BME280;60223;34.854;-92.408;2024-01-30T06:24:58;101028.80;;;27.67;20.39
37710;BME280;60223;34.854;-92.408;2024-01-30T06:27:20;101031.82;;;27.84;20.55
37710;BME280;60223;34.854;-92.408;2024-01-30T06:29:49;101026.87;;;27.97;20.29
37710;BME280;60223;34.854;-92.408;2024-01-30T06:32:14;101027.23;;;27.20;20.83
37710;BME280;60223;34.854;-92.408;2024-01-30T06:34:40;101025.69;;;26.73;21.18
37710;BME280;60223;34.854;-92.408;2024-01-30T06:37:06;101015.62;;;25.75;22.10
37710;BME280;60223;34.854;-92.408;2024-01-30T06:39:31;101008.67;;;25.04;22.48
37710;BME280;60223;34.854;-92.408;2024-01-30T06:41:54;101001.29;;;25.34;22.25
37710;BME280;60223;34.854;-92.408;2024-01-30T06:44:22;100997.16;;;25.37;22.22
37710;BME280;60223;34.854;-92.408;2024-01-30T06:46:47;100992.08;;;25.17;22.33
37710;BME280;60223;34.854;-92.408;2024-01-30T06:49:14;100990.19;;;25.20;22.31
37710;BME280;60223;34.854;-92.408;2024-01-30T06:51:40;100993.29;;;25.42;22.32
37710;BME280;60223;34.854;-92.408;2024-01-30T06:54:05;100994.62;;;25.23;22.27
37710;BME280;60223;34.854;-92.408;2024-01-30T06:56:28;100995.90;;;27.23;20.93
37710;BME280;60223;34.854;-92.408;2024-01-30T06:58:56;100993.32;;;27.12;20.79
37710;BME280;60223;34.854;-92.408;2024-01-30T07:01:21;100985.94;;;26.69;20.83
37710;BME280;60223;34.854;-92.408;2024-01-30T07:03:48;100980.67;;;27.89;19.96
37710;BME280;60223;34.854;-92.408;2024-01-30T07:06:13;100973.97;;;28.41;19.77
37710;BME280;60223;34.854;-92.408;2024-01-30T07:08:39;100978.21;;;28.39;19.69
37710;BME280;60223;34.854;-92.408;2024-01-30T07:11:04;100982.17;;;28.08;20.16
37710;BME280;60223;34.854;-92.408;2024-01-30T07:13:31;100983.88;;;27.77;20.34
37710;BME280;60223;34.854;-92.408;2024-01-30T07:15:55;100985.14;;;27.74;20.36
37710;BME280;60223;34.854;-92.408;2024-01-30T07:18:20;100989.53;;;27.15;20.76
37710;BME280;60223;34.854;-92.408;2024-01-30T07:20:47;100985.41;;;25.78;21.57
37710;BME280;60223;34.854;-92.408;2024-01-30T07:23:13;100987.57;;;26.17;21.87
37710;BME280;60223;34.854;-92.408;2024-01-30T07:25:39;100981.79;;;25.19;22.26
37710;BME280;60223;34.854;-92.408;2024-01-30T07:28:04;100984.17;;;25.35;22.15
37710;BME280;60223;34.854;-92.408;2024-01-30T07:30:26;100979.55;;;25.57;22.13
37710;BME280;60223;34.854;-92.408;2024-01-30T07:32:55;100980.28;;;25.83;21.93
37710;BME280;60223;34.854;-92.408;2024-01-30T07:35:21;100980.58;;;25.62;22.08
37710;BME280;60223;34.854;-92.408;2024-01-30T07:37:46;100979.90;;;25.14;22.27
37710;BME280;60223;34.854;-92.408;2024-01-30T07:40:12;100976.52;;;25.90;21.87
37710;BME280;60223;34.854;-92.408;2024-01-30T07:42:38;100978.35;;;27.54;20.02
37710;BME280;60223;34.854;-92.408;2024-01-30T07:45:00;100980.31;;;26.80;20.83
37710;BME280;60223;34.854;-92.408;2024-01-30T07:47:29;100974.65;;;27.52;20.16
37710;BME280;60223;34.854;-92.408;2024-01-30T07:49:53;100966.57;;;28.28;19.73
37710;BME280;60223;34.854;-92.408;2024-01-30T07:52:20;100960.18;;;28.33;19.55
37710;BME280;60223;34.854;-92.408;2024-01-30T07:54:52;100958.08;;;28.40;19.73
37710;BME280;60223;34.854;-92.408;2024-01-30T07:57:11;100959.56;;;27.45;20.39
37710;BME280;60223;34.854;-92.408;2024-01-30T07:59:38;100959.07;;;27.57;20.43
37710;BME280;60223;34.854;-92.408;2024-01-30T08:02:00;100956.39;;;27.39;20.51
37710;BME280;60223;34.854;-92.408;2024-01-30T08:04:28;100955.06;;;26.39;21.21
37710;BME280;60223;34.854;-92.408;2024-01-30T08:06:54;100951.73;;;25.72;21.73
37710;BME280;60223;34.854;-92.408;2024-01-30T08:09:19;100949.05;;;25.59;21.83
37710;BME280;60223;34.854;-92.408;2024-01-30T08:11:45;100947.79;;;25.37;21.99
37710;BME280;60223;34.854;-92.408;2024-01-30T08:14:11;100945.05;;;25.68;21.93
37710;BME280;60223;34.854;-92.408;2024-01-30T08:16:33;100940.95;;;25.60;22.01
37710;BME280;60223;34.854;-92.408;2024-01-30T08:19:02;100938.57;;;25.51;21.88
37710;BME280;60223;34.854;-92.408;2024-01-30T08:21:28;100935.85;;;25.46;21.91
37710;BME280;60223;34.854;-92.408;2024-01-30T08:23:54;100936.77;;;25.14;22.15
37710;BME280;60223;34.854;-92.408;2024-01-30T08:26:19;100942.97;;;27.76;20.16
37710;BME280;60223;34.854;-92.408;2024-01-30T08:28:45;100941.65;;;27.74;20.28
37710;BME280;60223;34.854;-92.408;2024-01-30T08:31:10;100942.56;;;27.59;19.98
37710;BME280;60223;34.854;-92.408;2024-01-30T08:33:36;100935.29;;;28.12;19.56
37710;BME280;60223;34.854;-92.408;2024-01-30T08:36:01;100941.50;;;28.25;19.52
37710;BME280;60223;34.854;-92.408;2024-01-30T08:38:27;100951.46;;;27.36;20.09
37710;BME280;60223;34.854;-92.408;2024-01-30T08:40:54;100948.86;;;27.73;20.18
37710;BME280;60223;34.854;-92.408;2024-01-30T08:43:18;100951.28;;;27.81;20.28
37710;BME280;60223;34.854;-92.408;2024-01-30T08:45:44;100949.98;;;26.74;21.03
37710;BME280;60223;34.854;-92.408;2024-01-30T08:48:10;100951.11;;;25.80;21.54
37710;BME280;60223;34.854;-92.408;2024-01-30T08:50:35;100947.73;;;25.47;21.80
37710;BME280;60223;34.854;-92.408;2024-01-30T08:53:00;100944.82;;;26.14;21.64
37710;BME280;60223;34.854;-92.408;2024-01-30T08:55:26;100945.19;;;25.98;21.59
37710;BME280;60223;34.854;-92.408;2024-01-30T08:57:52;100943.57;;;25.31;21.91
37710;BME280;60223;34.854;-92.408;2024-01-30T09:00:18;100940.42;;;25.56;21.87
37710;BME280;60223;34.854;-92.408;2024-01-30T09:02:44;100944.90;;;26.67;20.83
37710;BME280;60223;34.854;-92.408;2024-01-30T09:05:08;100941.92;;;27.99;19.94
37710;BME280;60223;34.854;-92.408;2024-01-30T09:07:32;100942.96;;;27.71;20.09
37710;BME280;60223;34.854;-92.408;2024-01-30T09:10:00;100933.91;;;27.98;19.52
37710;BME280;60223;34.854;-92.408;2024-01-30T09:12:23;100932.43;;;28.82;19.27
37710;BME280;60223;34.854;-92.408;2024-01-30T09:14:51;100929.93;;;28.29;19.38
37710;BME280;60223;34.854;-92.408;2024-01-30T09:17:17;100931.85;;;27.60;20.06
37710;BME280;60223;34.854;-92.408;2024-01-30T09:19:42;100930.80;;;27.58;20.20
37710;BME280;60223;34.854;-92.408;2024-01-30T09:22:08;100931.52;;;27.40;20.43
37710;BME280;60223;34.854;-92.408;2024-01-30T09:24:34;100930.85;;;26.41;21.16
37710;BME280;60223;34.854;-92.408;2024-01-30T09:27:00;100929.20;;;25.60;21.59
37710;BME280;60223;34.854;-92.408;2024-01-30T09:29:25;100926.13;;;25.39;21.73
37710;BME280;60223;34.854;-92.408;2024-01-30T09:31:51;100924.76;;;25.72;21.68
37710;BME280;60223;34.854;-92.408;2024-01-30T09:34:17;100922.86;;;25.65;21.56
37710;BME280;60223;34.854;-92.408;2024-01-30T09:36:43;100923.02;;;25.75;21.44
37710;BME280;60223;34.854;-92.408;2024-01-30T09:39:08;100917.23;;;25.67;21.70
37710;BME280;60223;34.854;-92.408;2024-01-30T09:41:33;100914.84;;;25.32;21.77
37710;BME280;60223;34.854;-92.408;2024-01-30T09:44:01;100910.48;;;25.42;21.85
37710;BME280;60223;34.854;-92.408;2024-01-30T09:46:28;100904.92;;;27.84;19.71
37710;BME280;60223;34.854;-92.408;2024-01-30T09:48:50;100907.85;;;27.21;20.22
37710;BME280;60223;34.854;-92.408;2024-01-30T09:51:18;100900.42;;;28.00;19.65
37710;BME280;60223;34.854;-92.408;2024-01-30T09:53:43;100901.49;;;28.32;19.18
37710;BME280;60223;34.854;-92.408;2024-01-30T09:56:07;100901.33;;;28.43;19.08
37710;BME280;60223;34.854;-92.408;2024-01-30T09:58:32;100894.99;;;28.07;19.44
37710;BME280;60223;34.854;-92.408;2024-01-30T10:00:58;100892.75;;;26.83;20.51
37710;BME280;60223;34.854;-92.408;2024-01-30T10:03:24;100885.64;;;27.70;19.97
37710;BME280;60223;34.854;-92.408;2024-01-30T10:05:50;100886.33;;;26.55;20.77
37710;BME280;60223;34.854;-92.408;2024-01-30T10:08:16;100884.74;;;25.92;21.27
37710;BME280;60223;34.854;-92.408;2024-01-30T10:10:41;100881.68;;;25.25;21.72
37710;BME280;60223;34.854;-92.408;2024-01-30T10:13:06;100878.55;;;25.89;21.43
37710;BME280;60223;34.854;-92.408;2024-01-30T10:15:32;100879.11;;;26.21;21.21
37710;BME280;60223;34.854;-92.408;2024-01-30T10:17:58;100876.91;;;26.13;21.28
37710;BME280;60223;34.854;-92.408;2024-01-30T10:20:24;100874.10;;;25.56;21.49
37710;BME280;60223;34.854;-92.408;2024-01-30T10:22:46;100867.55;;;25.43;21.60
37710;BME280;60223;34.854;-92.408;2024-01-30T10:25:15;100860.55;;;25.47;21.74
37710;BME280;60223;34.854;-92.408;2024-01-30T10:30:06;100848.04;;;27.03;20.13
37710;BME280;60223;34.854;-92.408;2024-01-30T10:32:32;100843.62;;;27.60;19.84
37710;BME280;60223;34.854;-92.408;2024-01-30T10:34:57;100844.56;;;28.63;19.18
37710;BME280;60223;34.854;-92.408;2024-01-30T10:37:23;100839.99;;;28.63;18.98
37710;BME280;60223;34.854;-92.408;2024-01-30T10:39:49;100840.67;;;28.36;19.14
37710;BME280;60223;34.854;-92.408;2024-01-30T10:42:14;100834.06;;;27.04;20.27
37710;BME280;60223;34.854;-92.408;2024-01-30T10:44:45;100831.18;;;27.92;19.93
37710;BME280;60223;34.854;-92.408;2024-01-30T10:47:07;100827.94;;;27.35;20.12
37710;BME280;60223;34.854;-92.408;2024-01-30T10:49:32;100828.43;;;26.09;21.00
37710;BME280;60223;34.854;-92.408;2024-01-30T10:51:56;100829.83;;;25.68;21.31
37710;BME280;60223;34.854;-92.408;2024-01-30T10:54:23;100833.57;;;25.77;21.25
37710;BME280;60223;34.854;-92.408;2024-01-30T10:56:48;100830.89;;;25.81;21.22
37710;BME280;60223;34.854;-92.408;2024-01-30T10:59:14;100828.09;;;26.14;21.15
37710;BME280;60223;34.854;-92.408;2024-01-30T11:01:40;100824.75;;;26.05;21.21
37710;BME280;60223;34.854;-92.408;2024-01-30T11:04:02;100825.10;;;25.70;21.46
37710;BME280;60223;34.854;-92.408;2024-01-30T11:06:30;100823.51;;;25.49;21.44
37710;BME280;60223;34.854;-92.408;2024-01-30T11:09:05;100822.92;;;25.15;21.69
37710;BME280;60223;34.854;-92.408;2024-01-30T11:11:22;100817.34;;;27.93;19.56
37710;BME280;60223;34.854;-92.408;2024-01-30T11:13:48;100814.78;;;26.85;20.10
37710;BME280;60223;34.854;-92.408;2024-01-30T11:16:10;100814.57;;;27.41;19.67
37710;BME280;60223;34.854;-92.408;2024-01-30T11:18:39;100811.93;;;28.05;19.13
37710;BME280;60223;34.854;-92.408;2024-01-30T11:21:04;100813.90;;;28.47;18.94
37710;BME280;60223;34.854;-92.408;2024-01-30T11:23:30;100817.18;;;28.50;18.86
37710;BME280;60223;34.854;-92.408;2024-01-30T11:25:56;100815.00;;;27.59;19.71
37710;BME280;60223;34.854;-92.408;2024-01-30T11:28:22;100810.00;;;27.24;20.10
37710;BME280;60223;34.854;-92.408;2024-01-30T11:30:44;100807.70;;;27.52;20.02
37710;BME280;60223;34.854;-92.408;2024-01-30T11:33:13;100808.67;;;26.38;20.85
37710;BME280;60223;34.854;-92.408;2024-01-30T11:35:41;100808.80;;;25.77;21.12
37710;BME280;60223;34.854;-92.408;2024-01-30T11:38:04;100807.58;;;25.93;21.19
37710;BME280;60223;34.854;-92.408;2024-01-30T11:40:28;100806.67;;;25.96;20.98
37710;BME280;60223;34.854;-92.408;2024-01-30T11:42:55;100804.50;;;25.95;20.95
37710;BME280;60223;34.854;-92.408;2024-01-30T11:45:21;100804.75;;;25.97;20.97
37710;BME280;60223;34.854;-92.408;2024-01-30T11:47:46;100799.67;;;25.94;21.16
37710;BME280;60223;34.854;-92.408;2024-01-30T11:50:10;100795.35;;;26.70;20.28
37710;BME280;60223;34.854;-92.408;2024-01-30T11:52:37;100795.15;;;27.96;19.33
37710;BME280;60223;34.854;-92.408;2024-01-30T11:55:03;100798.21;;;27.49;19.65
37710;BME280;60223;34.854;-92.408;2024-01-30T11:57:28;100801.69;;;28.30;19.02
37710;BME280;60223;34.854;-92.408;2024-01-30T11:59:54;100801.87;;;28.87;18.73
37710;BME280;60223;34.854;-92.408;2024-01-30T12:02:20;100802.23;;;28.46;18.76
37710;BME280;60223;34.854;-92.408;2024-01-30T12:04:43;100799.15;;;26.95;20.05
37710;BME280;60223;34.854;-92.408;2024-01-30T12:07:11;100796.93;;;27.32;19.98
37710;BME280;60223;34.854;-92.408;2024-01-30T12:09:37;100797.77;;;26.84;20.28
37710;BME280;60223;34.854;-92.408;2024-01-30T12:12:02;100800.21;;;25.83;20.98
37710;BME280;60223;34.854;-92.408;2024-01-30T12:14:27;100802.53;;;25.78;21.00
37710;BME280;60223;34.854;-92.408;2024-01-30T12:16:54;100797.13;;;26.04;20.96
37710;BME280;60223;34.854;-92.408;2024-01-30T12:19:24;100795.12;;;27.62;19.78
37710;BME280;60223;34.854;-92.408;2024-01-30T12:21:45;100798.72;;;28.36;18.98
37710;BME280;60223;34.854;-92.408;2024-01-30T12:24:08;100799.86;;;28.38;18.93
37710;BME280;60223;34.854;-92.408;2024-01-30T12:26:36;100800.95;;;28.58;18.61
37710;BME280;60223;34.854;-92.408;2024-01-30T12:29:03;100800.51;;;27.34;19.72
37710;BME280;60223;34.854;-92.408;2024-01-30T12:31:31;100801.21;;;27.16;20.24
37710;BME280;60223;34.854;-92.408;2024-01-30T12:33:53;100806.90;;;27.41;19.88
37710;BME280;60223;34.854;-92.408;2024-01-30T12:36:21;100806.50;;;26.29;20.67
37710;BME280;60223;34.854;-92.408;2024-01-30T12:38:44;100804.04;;;26.02;20.86
37710;BME280;60223;34.854;-92.408;2024-01-30T12:41:10;100805.60;;;26.03;20.85